sensor_id;sensor_type;location;lat;lon;timestamp;P1;durP1;ratioP1;P2;durP2;ratioP2
20320;SDS011;10318;47.674;9.052;2022-11-27T00:02:13;14.32;;;10.48;;
20320;SDS011;10318;47.674;9.052;2022-11-27T00:04:40;16.90;;;11.40;;
20320;SDS011;10318;47.674;9.052;2022-11-27T00:07:07;16.05;;;10.30;;
20320;SDS011;10318;47.674;9.052;2022-11-27T00:09:33;15.75;;;10.60;;
20320;SDS011;10318;47.674;9.052;2022-11-27T00:12:00;14.20;;;10.57;;
20320;SDS011;10318;47.674;9.052;2022-11-27T00:14:26;17.35;;;10.45;;
20320;SDS011;10318;47.674;9.052;2022-11-27T00:16:53;13.73;;;9.95;;
20320;SDS011;10318;47.674;9.052;2022-11-27T00:19:20;18.63;;;10.65;;
20320;SDS011;10318;47.674;9.052;2022-11-27T00:21:46;16.83;;;10.10;;
20320;SDS011;10318;47.674;9.052;2022-11-27T00:24:13;15.05;;;10.10;;
20320;SDS011;10318;47.674;9.052;2022-11-27T00:26:40;17.27;;;10.93;;
20320;SDS011;10318;47.674;9.052;2022-11-27T00:29:07;13.95;;;10.10;;
20320;SDS011;10318;47.674;9.052;2022-11-27T00:31:34;18.58;;;10.30;;
20320;SDS011;10318;47.674;9.052;2022-11-27T00:34:03;15.70;;;10.52;;
20320;SDS011;10318;47.674;9.052;2022-11-27T00:36:31;16.33;;;10.20;;
20320;SDS011;10318;47.674;9.052;2022-11-27T00:38:59;17.10;;;10.07;;
20320;SDS011;10318;47.674;9.052;2022-11-27T00:41:27;15.43;;;9.65;;
20320;SDS011;10318;47.674;9.052;2022-11-27T00:43:54;17.50;;;10.50;;
20320;SDS011;10318;47.674;9.052;2022-11-27T00:46:22;17.63;;;9.75;;
20320;SDS011;10318;47.674;9.052;2022-11-27T00:48:54;16.05;;;9.50;;
20320;SDS011;10318;47.674;9.052;2022-11-27T00:51:22;17.33;;;9.93;;
20320;SDS011;10318;47.674;9.052;2022-11-27T00:53:48;15.05;;;10.02;;
20320;SDS011;10318;47.674;9.052;2022-11-27T00:56:19;14.25;;;9.32;;
20320;SDS011;10318;47.674;9.052;2022-11-27T00:58:46;13.82;;;9.18;;
20320;SDS011;10318;47.674;9.052;2022-11-27T01:01:17;10.40;;;8.13;;
20320;SDS011;10318;47.674;9.052;2022-11-27T01:03:44;12.88;;;9.10;;
20320;SDS011;10318;47.674;9.052;2022-11-27T01:06:11;12.40;;;8.77;;
20320;SDS011;10318;47.674;9.052;2022-11-27T01:08:38;13.60;;;8.65;;
20320;SDS011;10318;47.674;9.052;2022-11-27T01:11:05;10.85;;;7.30;;
20320;SDS011;10318;47.674;9.052;2022-11-27T01:13:33;10.18;;;7.90;;
20320;SDS011;10318;47.674;9.052;2022-11-27T01:16:01;10.25;;;7.93;;
20320;SDS011;10318;47.674;9.052;2022-11-27T01:18:28;13.18;;;8.00;;
20320;SDS011;10318;47.674;9.052;2022-11-27T01:20:55;10.90;;;8.07;;
20320;SDS011;10318;47.674;9.052;2022-11-27T01:23:22;10.43;;;7.95;;
20320;SDS011;10318;47.674;9.052;2022-11-27T01:25:49;10.43;;;7.88;;
20320;SDS011;10318;47.674;9.052;2022-11-27T01:28:18;11.65;;;7.60;;
20320;SDS011;10318;47.674;9.052;2022-11-27T01:30:46;8.85;;;6.35;;
20320;SDS011;10318;47.674;9.052;2022-11-27T01:33:12;9.38;;;6.78;;
20320;SDS011;10318;47.674;9.052;2022-11-27T01:35:39;9.18;;;6.65;;
20320;SDS011;10318;47.674;9.052;2022-11-27T01:38:06;11.60;;;6.80;;
20320;SDS011;10318;47.674;9.052;2022-11-27T01:40:32;11.80;;;7.75;;
20320;SDS011;10318;47.674;9.052;2022-11-27T01:42:59;11.48;;;7.95;;
20320;SDS011;10318;47.674;9.052;2022-11-27T01:45:25;10.60;;;8.07;;
20320;SDS011;10318;47.674;9.052;2022-11-27T01:47:56;11.13;;;8.63;;
20320;SDS011;10318;47.674;9.052;2022-11-27T01:50:25;13.82;;;9.50;;
20320;SDS011;10318;47.674;9.052;2022-11-27T01:52:54;20.35;;;10.43;;
20320;SDS011;10318;47.674;9.052;2022-11-27T01:55:27;15.02;;;9.23;;
20320;SDS011;10318;47.674;9.052;2022-11-27T01:57:58;13.25;;;9.25;;
20320;SDS011;10318;47.674;9.052;2022-11-27T02:00:25;15.48;;;9.63;;
20320;SDS011;10318;47.674;9.052;2022-11-27T02:02:53;12.55;;;9.00;;
20320;SDS011;10318;47.674;9.052;2022-11-27T02:05:21;13.40;;;9.05;;
20320;SDS011;10318;47.674;9.052;2022-11-27T02:07:49;12.63;;;9.20;;
20320;SDS011;10318;47.674;9.052;2022-11-27T02:10:16;11.88;;;8.88;;
20320;SDS011;10318;47.674;9.052;2022-11-27T02:12:58;15.05;;;9.52;;
20320;SDS011;10318;47.674;9.052;2022-11-27T02:18:24;12.15;;;9.20;;
20320;SDS011;10318;47.674;9.052;2022-11-27T02:28:34;13.88;;;10.18;;
20320;SDS011;10318;47.674;9.052;2022-11-27T02:31:15;12.88;;;10.05;;
20320;SDS011;10318;47.674;9.052;2022-11-27T02:33:45;12.48;;;9.60;;
20320;SDS011;10318;47.674;9.052;2022-11-27T02:36:17;14.13;;;9.13;;
20320;SDS011;10318;47.674;9.052;2022-11-27T02:38:46;13.15;;;9.45;;
20320;SDS011;10318;47.674;9.052;2022-11-27T02:41:25;13.40;;;9.80;;
20320;SDS011;10318;47.674;9.052;2022-11-27T02:43:53;20.17;;;11.27;;
20320;SDS011;10318;47.674;9.052;2022-11-27T02:46:21;18.90;;;11.52;;
20320;SDS011;10318;47.674;9.052;2022-11-27T02:48:52;16.30;;;11.23;;
20320;SDS011;10318;47.674;9.052;2022-11-27T02:51:22;26.95;;;11.65;;
20320;SDS011;10318;47.674;9.052;2022-11-27T02:53:53;30.30;;;11.75;;
20320;SDS011;10318;47.674;9.052;2022-11-27T02:56:21;18.13;;;10.82;;
20320;SDS011;10318;47.674;9.052;2022-11-27T02:58:49;23.98;;;11.55;;
20320;SDS011;10318;47.674;9.052;2022-11-27T03:01:17;38.33;;;10.63;;
20320;SDS011;10318;47.674;9.052;2022-11-27T03:03:51;41.65;;;11.68;;
20320;SDS011;10318;47.674;9.052;2022-11-27T03:06:26;31.23;;;11.40;;
20320;SDS011;10318;47.674;9.052;2022-11-27T03:09:08;20.58;;;10.52;;
20320;SDS011;10318;47.674;9.052;2022-11-27T03:11:36;16.38;;;10.40;;
20320;SDS011;10318;47.674;9.052;2022-11-27T03:14:04;16.73;;;10.95;;
20320;SDS011;10318;47.674;9.052;2022-11-27T03:19:25;28.90;;;11.88;;
20320;SDS011;10318;47.674;9.052;2022-11-27T03:21:57;21.73;;;10.85;;
20320;SDS011;10318;47.674;9.052;2022-11-27T03:24:24;14.68;;;10.25;;
20320;SDS011;10318;47.674;9.052;2022-11-27T03:26:50;16.95;;;11.38;;
20320;SDS011;10318;47.674;9.052;2022-11-27T03:29:21;15.55;;;10.75;;
20320;SDS011;10318;47.674;9.052;2022-11-27T03:31:49;14.77;;;10.65;;
20320;SDS011;10318;47.674;9.052;2022-11-27T03:34:15;16.83;;;10.75;;
20320;SDS011;10318;47.674;9.052;2022-11-27T03:36:44;16.50;;;11.05;;
20320;SDS011;10318;47.674;9.052;2022-11-27T03:39:10;14.02;;;10.35;;
20320;SDS011;10318;47.674;9.052;2022-11-27T03:41:39;16.83;;;10.50;;
20320;SDS011;10318;47.674;9.052;2022-11-27T03:44:22;17.30;;;10.68;;
20320;SDS011;10318;47.674;9.052;2022-11-27T03:49:31;19.55;;;11.23;;
20320;SDS011;10318;47.674;9.052;2022-11-27T03:54:33;18.05;;;10.52;;
20320;SDS011;10318;47.674;9.052;2022-11-27T03:57:07;16.45;;;10.30;;
20320;SDS011;10318;47.674;9.052;2022-11-27T03:59:39;15.50;;;10.50;;
20320;SDS011;10318;47.674;9.052;2022-11-27T04:02:14;14.40;;;9.85;;
20320;SDS011;10318;47.674;9.052;2022-11-27T04:04:41;15.98;;;10.50;;
20320;SDS011;10318;47.674;9.052;2022-11-27T04:07:10;13.63;;;10.18;;
20320;SDS011;10318;47.674;9.052;2022-11-27T04:09:41;17.50;;;11.05;;
20320;SDS011;10318;47.674;9.052;2022-11-27T04:12:08;13.63;;;9.80;;
20320;SDS011;10318;47.674;9.052;2022-11-27T04:14:34;15.57;;;10.50;;
20320;SDS011;10318;47.674;9.052;2022-11-27T04:17:01;13.88;;;9.40;;
20320;SDS011;10318;47.674;9.052;2022-11-27T04:19:27;13.57;;;10.38;;
20320;SDS011;10318;47.674;9.052;2022-11-27T04:21:54;13.32;;;9.77;;
20320;SDS011;10318;47.674;9.052;2022-11-27T04:24:21;16.73;;;10.38;;
20320;SDS011;10318;47.674;9.052;2022-11-27T04:26:47;16.02;;;10.60;;
20320;SDS011;10318;47.674;9.052;2022-11-27T04:29:14;14.70;;;10.05;;
20320;SDS011;10318;47.674;9.052;2022-11-27T04:31:41;13.55;;;10.10;;
20320;SDS011;10318;47.674;9.052;2022-11-27T04:34:08;16.67;;;9.90;;
20320;SDS011;10318;47.674;9.052;2022-11-27T04:36:34;13.27;;;10.13;;
20320;SDS011;10318;47.674;9.052;2022-11-27T04:39:05;15.07;;;10.07;;
20320;SDS011;10318;47.674;9.052;2022-11-27T04:41:31;14.93;;;9.18;;
20320;SDS011;10318;47.674;9.052;2022-11-27T04:43:58;12.68;;;10.20;;
20320;SDS011;10318;47.674;9.052;2022-11-27T04:46:25;14.82;;;9.80;;
20320;SDS011;10318;47.674;9.052;2022-11-27T04:48:51;15.60;;;10.25;;
20320;SDS011;10318;47.674;9.052;2022-11-27T04:51:18;13.32;;;10.27;;
20320;SDS011;10318;47.674;9.052;2022-11-27T04:53:45;13.70;;;10.05;;
20320;SDS011;10318;47.674;9.052;2022-11-27T04:56:11;11.90;;;9.73;;
20320;SDS011;10318;47.674;9.052;2022-11-27T04:58:38;14.25;;;9.73;;
20320;SDS011;10318;47.674;9.052;2022-11-27T05:01:06;12.98;;;9.88;;
20320;SDS011;10318;47.674;9.052;2022-11-27T05:03:34;14.10;;;10.35;;
20320;SDS011;10318;47.674;9.052;2022-11-27T05:06:00;13.85;;;10.02;;
20320;SDS011;10318;47.674;9.052;2022-11-27T05:08:28;13.68;;;10.32;;
20320;SDS011;10318;47.674;9.052;2022-11-27T05:11:02;15.40;;;10.35;;
20320;SDS011;10318;47.674;9.052;2022-11-27T05:13:29;14.50;;;10.90;;
20320;SDS011;10318;47.674;9.052;2022-11-27T05:15:56;14.00;;;10.27;;
20320;SDS011;10318;47.674;9.052;2022-11-27T05:18:23;13.07;;;10.60;;
20320;SDS011;10318;47.674;9.052;2022-11-27T05:20:56;12.80;;;10.60;;
20320;SDS011;10318;47.674;9.052;2022-11-27T05:23:24;13.07;;;10.07;;
20320;SDS011;10318;47.674;9.052;2022-11-27T05:25:51;13.38;;;10.55;;
20320;SDS011;10318;47.674;9.052;2022-11-27T05:28:18;14.35;;;10.20;;
20320;SDS011;10318;47.674;9.052;2022-11-27T05:30:51;13.13;;;10.43;;
20320;SDS011;10318;47.674;9.052;2022-11-27T05:33:18;15.35;;;10.40;;
20320;SDS011;10318;47.674;9.052;2022-11-27T05:35:45;13.43;;;10.65;;
20320;SDS011;10318;47.674;9.052;2022-11-27T05:38:11;14.00;;;10.80;;
20320;SDS011;10318;47.674;9.052;2022-11-27T05:40:38;16.30;;;10.90;;
20320;SDS011;10318;47.674;9.052;2022-11-27T05:43:05;14.93;;;10.52;;
20320;SDS011;10318;47.674;9.052;2022-11-27T05:45:32;13.55;;;10.43;;
20320;SDS011;10318;47.674;9.052;2022-11-27T05:47:59;14.65;;;11.32;;
20320;SDS011;10318;47.674;9.052;2022-11-27T05:50:25;15.98;;;10.40;;
20320;SDS011;10318;47.674;9.052;2022-11-27T05:52:52;13.75;;;10.40;;
20320;SDS011;10318;47.674;9.052;2022-11-27T05:55:18;16.75;;;11.05;;
20320;SDS011;10318;47.674;9.052;2022-11-27T05:57:45;14.20;;;10.63;;
20320;SDS011;10318;47.674;9.052;2022-11-27T06:00:12;14.57;;;11.70;;
20320;SDS011;10318;47.674;9.052;2022-11-27T06:02:39;15.93;;;11.52;;
20320;SDS011;10318;47.674;9.052;2022-11-27T06:05:06;16.77;;;11.32;;
20320;SDS011;10318;47.674;9.052;2022-11-27T06:07:33;16.65;;;11.65;;
20320;SDS011;10318;47.674;9.052;2022-11-27T06:10:00;16.27;;;10.60;;
20320;SDS011;10318;47.674;9.052;2022-11-27T06:12:26;15.20;;;10.13;;
20320;SDS011;10318;47.674;9.052;2022-11-27T06:14:53;15.18;;;9.90;;
20320;SDS011;10318;47.674;9.052;2022-11-27T06:17:20;15.05;;;11.23;;
20320;SDS011;10318;47.674;9.052;2022-11-27T06:19:47;15.05;;;10.45;;
20320;SDS011;10318;47.674;9.052;2022-11-27T06:22:14;17.83;;;11.10;;
20320;SDS011;10318;47.674;9.052;2022-11-27T06:24:40;15.73;;;10.82;;
20320;SDS011;10318;47.674;9.052;2022-11-27T06:27:07;12.80;;;10.57;;
20320;SDS011;10318;47.674;9.052;2022-11-27T06:29:35;19.45;;;11.70;;
20320;SDS011;10318;47.674;9.052;2022-11-27T06:32:02;15.63;;;10.70;;
20320;SDS011;10318;47.674;9.052;2022-11-27T06:34:29;16.67;;;10.95;;
20320;SDS011;10318;47.674;9.052;2022-11-27T06:36:56;13.88;;;10.38;;
20320;SDS011;10318;47.674;9.052;2022-11-27T06:39:23;16.08;;;11.45;;
20320;SDS011;10318;47.674;9.052;2022-11-27T06:41:49;15.18;;;10.98;;
20320;SDS011;10318;47.674;9.052;2022-11-27T06:44:16;16.80;;;11.43;;
20320;SDS011;10318;47.674;9.052;2022-11-27T06:46:43;18.92;;;11.05;;
20320;SDS011;10318;47.674;9.052;2022-11-27T06:49:11;18.20;;;11.48;;
20320;SDS011;10318;47.674;9.052;2022-11-27T06:51:38;19.30;;;11.13;;
20320;SDS011;10318;47.674;9.052;2022-11-27T06:54:04;17.90;;;10.82;;
20320;SDS011;10318;47.674;9.052;2022-11-27T06:56:31;15.35;;;10.43;;
20320;SDS011;10318;47.674;9.052;2022-11-27T06:58:58;17.50;;;9.90;;
20320;SDS011;10318;47.674;9.052;2022-11-27T07:01:26;17.00;;;10.98;;
20320;SDS011;10318;47.674;9.052;2022-11-27T07:03:53;18.33;;;10.82;;
20320;SDS011;10318;47.674;9.052;2022-11-27T07:06:20;16.20;;;11.15;;
20320;SDS011;10318;47.674;9.052;2022-11-27T07:08:47;14.30;;;10.35;;
20320;SDS011;10318;47.674;9.052;2022-11-27T07:11:37;18.35;;;11.95;;
20320;SDS011;10318;47.674;9.052;2022-11-27T07:14:02;24.95;;;15.55;;
20320;SDS011;10318;47.674;9.052;2022-11-27T07:16:30;17.63;;;11.80;;
20320;SDS011;10318;47.674;9.052;2022-11-27T07:18:59;21.42;;;12.77;;
20320;SDS011;10318;47.674;9.052;2022-11-27T07:21:25;16.85;;;11.82;;
20320;SDS011;10318;47.674;9.052;2022-11-27T07:23:53;15.52;;;11.52;;
20320;SDS011;10318;47.674;9.052;2022-11-27T07:26:22;16.90;;;11.05;;
20320;SDS011;10318;47.674;9.052;2022-11-27T07:28:49;15.63;;;10.90;;
20320;SDS011;10318;47.674;9.052;2022-11-27T07:31:18;17.15;;;11.48;;
20320;SDS011;10318;47.674;9.052;2022-11-27T07:33:44;18.73;;;11.38;;
20320;SDS011;10318;47.674;9.052;2022-11-27T07:36:12;15.80;;;10.65;;
20320;SDS011;10318;47.674;9.052;2022-11-27T07:38:39;17.52;;;11.40;;
20320;SDS011;10318;47.674;9.052;2022-11-27T07:41:06;18.45;;;11.20;;
20320;SDS011;10318;47.674;9.052;2022-11-27T07:43:33;16.80;;;10.85;;
20320;SDS011;10318;47.674;9.052;2022-11-27T07:46:04;17.10;;;11.23;;
20320;SDS011;10318;47.674;9.052;2022-11-27T07:48:31;15.23;;;10.90;;
20320;SDS011;10318;47.674;9.052;2022-11-27T07:50:58;18.63;;;11.85;;
20320;SDS011;10318;47.674;9.052;2022-11-27T07:53:24;14.77;;;11.15;;
20320;SDS011;10318;47.674;9.052;2022-11-27T07:55:51;19.70;;;11.63;;
20320;SDS011;10318;47.674;9.052;2022-11-27T07:58:18;15.73;;;10.60;;
20320;SDS011;10318;47.674;9.052;2022-11-27T08:00:45;15.68;;;11.88;;
20320;SDS011;10318;47.674;9.052;2022-11-27T08:03:11;15.95;;;11.88;;
20320;SDS011;10318;47.674;9.052;2022-11-27T08:05:38;16.98;;;12.02;;
20320;SDS011;10318;47.674;9.052;2022-11-27T08:08:05;19.20;;;12.50;;
20320;SDS011;10318;47.674;9.052;2022-11-27T08:10:35;14.80;;;11.75;;
20320;SDS011;10318;47.674;9.052;2022-11-27T08:13:02;16.25;;;11.65;;
20320;SDS011;10318;47.674;9.052;2022-11-27T08:15:28;16.52;;;10.52;;
20320;SDS011;10318;47.674;9.052;2022-11-27T08:17:55;15.60;;;11.55;;
20320;SDS011;10318;47.674;9.052;2022-11-27T08:20:22;13.95;;;10.55;;
20320;SDS011;10318;47.674;9.052;2022-11-27T08:22:49;15.18;;;11.30;;
20320;SDS011;10318;47.674;9.052;2022-11-27T08:25:16;13.40;;;10.70;;
20320;SDS011;10318;47.674;9.052;2022-11-27T08:27:42;14.00;;;10.82;;
20320;SDS011;10318;47.674;9.052;2022-11-27T08:30:09;16.00;;;10.90;;
20320;SDS011;10318;47.674;9.052;2022-11-27T08:32:40;15.35;;;10.63;;
20320;SDS011;10318;47.674;9.052;2022-11-27T08:35:08;15.27;;;10.55;;
20320;SDS011;10318;47.674;9.052;2022-11-27T08:37:35;15.80;;;10.45;;
20320;SDS011;10318;47.674;9.052;2022-11-27T08:40:02;15.27;;;10.82;;
20320;SDS011;10318;47.674;9.052;2022-11-27T08:42:29;17.45;;;9.90;;
20320;SDS011;10318;47.674;9.052;2022-11-27T08:44:56;18.52;;;12.50;;
20320;SDS011;10318;47.674;9.052;2022-11-27T08:47:22;19.33;;;13.43;;
20320;SDS011;10318;47.674;9.052;2022-11-27T08:49:49;17.33;;;11.35;;
20320;SDS011;10318;47.674;9.052;2022-11-27T08:52:16;15.88;;;11.73;;
20320;SDS011;10318;47.674;9.052;2022-11-27T08:54:42;15.85;;;11.85;;
20320;SDS011;10318;47.674;9.052;2022-11-27T08:57:09;20.52;;;13.77;;
20320;SDS011;10318;47.674;9.052;2022-11-27T08:59:36;22.98;;;12.93;;
20320;SDS011;10318;47.674;9.052;2022-11-27T09:02:02;18.83;;;11.82;;
20320;SDS011;10318;47.674;9.052;2022-11-27T09:04:29;24.27;;;13.93;;
20320;SDS011;10318;47.674;9.052;2022-11-27T09:06:56;21.17;;;14.35;;
20320;SDS011;10318;47.674;9.052;2022-11-27T09:09:24;20.00;;;13.50;;
20320;SDS011;10318;47.674;9.052;2022-11-27T09:11:52;20.00;;;13.82;;
20320;SDS011;10318;47.674;9.052;2022-11-27T09:14:19;21.98;;;13.13;;
20320;SDS011;10318;47.674;9.052;2022-11-27T09:16:46;18.85;;;13.80;;
20320;SDS011;10318;47.674;9.052;2022-11-27T09:19:13;22.73;;;13.40;;
20320;SDS011;10318;47.674;9.052;2022-11-27T09:21:39;21.80;;;13.07;;
20320;SDS011;10318;47.674;9.052;2022-11-27T09:24:06;23.63;;;14.95;;
20320;SDS011;10318;47.674;9.052;2022-11-27T09:26:34;20.55;;;14.80;;
20320;SDS011;10318;47.674;9.052;2022-11-27T09:29:01;20.23;;;14.50;;
20320;SDS011;10318;47.674;9.052;2022-11-27T09:31:27;20.63;;;14.00;;
20320;SDS011;10318;47.674;9.052;2022-11-27T09:33:54;22.92;;;14.98;;
20320;SDS011;10318;47.674;9.052;2022-11-27T09:36:23;19.23;;;13.68;;
20320;SDS011;10318;47.674;9.052;2022-11-27T09:38:50;20.02;;;14.02;;
20320;SDS011;10318;47.674;9.052;2022-11-27T09:44:15;22.10;;;14.00;;
20320;SDS011;10318;47.674;9.052;2022-11-27T09:46:43;20.50;;;14.35;;
20320;SDS011;10318;47.674;9.052;2022-11-27T09:49:12;17.55;;;13.13;;
20320;SDS011;10318;47.674;9.052;2022-11-27T09:51:44;17.25;;;13.02;;
20320;SDS011;10318;47.674;9.052;2022-11-27T09:54:23;18.45;;;13.65;;
20320;SDS011;10318;47.674;9.052;2022-11-27T09:56:52;20.17;;;13.65;;
20320;SDS011;10318;47.674;9.052;2022-11-27T09:59:24;18.58;;;13.10;;
20320;SDS011;10318;47.674;9.052;2022-11-27T10:01:53;21.52;;;13.43;;
20320;SDS011;10318;47.674;9.052;2022-11-27T10:04:19;18.35;;;12.80;;
20320;SDS011;10318;47.674;9.052;2022-11-27T10:30:16;20.45;;;13.10;;
20320;SDS011;10318;47.674;9.052;2022-11-27T10:32:43;23.25;;;12.40;;
20320;SDS011;10318;47.674;9.052;2022-11-27T10:35:22;18.33;;;12.45;;
20320;SDS011;10318;47.674;9.052;2022-11-27T10:37:51;16.98;;;12.35;;
20320;SDS011;10318;47.674;9.052;2022-11-27T10:40:21;17.92;;;12.00;;
20320;SDS011;10318;47.674;9.052;2022-11-27T10:45:27;17.73;;;12.20;;
20320;SDS011;10318;47.674;9.052;2022-11-27T10:47:55;17.02;;;12.32;;
20320;SDS011;10318;47.674;9.052;2022-11-27T10:50:21;17.63;;;11.68;;
20320;SDS011;10318;47.674;9.052;2022-11-27T10:52:50;18.52;;;12.50;;
20320;SDS011;10318;47.674;9.052;2022-11-27T10:55:43;16.38;;;11.40;;
20320;SDS011;10318;47.674;9.052;2022-11-27T10:58:16;16.35;;;11.70;;
20320;SDS011;10318;47.674;9.052;2022-11-27T11:00:46;15.82;;;12.02;;
20320;SDS011;10318;47.674;9.052;2022-11-27T11:03:15;17.55;;;11.55;;
20320;SDS011;10318;47.674;9.052;2022-11-27T11:05:42;15.85;;;11.77;;
20320;SDS011;10318;47.674;9.052;2022-11-27T11:08:39;17.75;;;11.73;;
20320;SDS011;10318;47.674;9.052;2022-11-27T11:11:07;15.32;;;11.02;;
20320;SDS011;10318;47.674;9.052;2022-11-27T11:18:41;14.77;;;11.00;;
20320;SDS011;10318;47.674;9.052;2022-11-27T11:23:44;15.50;;;10.80;;
20320;SDS011;10318;47.674;9.052;2022-11-27T11:26:25;18.17;;;10.93;;
20320;SDS011;10318;47.674;9.052;2022-11-27T11:28:54;14.45;;;10.35;;
20320;SDS011;10318;47.674;9.052;2022-11-27T11:31:22;12.50;;;9.80;;
20320;SDS011;10318;47.674;9.052;2022-11-27T11:33:57;16.35;;;10.40;;
20320;SDS011;10318;47.674;9.052;2022-11-27T11:36:24;15.52;;;9.65;;
20320;SDS011;10318;47.674;9.052;2022-11-27T11:38:51;16.50;;;10.80;;
20320;SDS011;10318;47.674;9.052;2022-11-27T11:41:18;13.38;;;9.70;;
20320;SDS011;10318;47.674;9.052;2022-11-27T11:43:59;13.05;;;10.30;;
20320;SDS011;10318;47.674;9.052;2022-11-27T11:46:28;13.13;;;9.52;;
20320;SDS011;10318;47.674;9.052;2022-11-27T11:51:31;13.90;;;10.07;;
20320;SDS011;10318;47.674;9.052;2022-11-27T11:56:40;12.55;;;9.68;;
20320;SDS011;10318;47.674;9.052;2022-11-27T11:59:15;12.60;;;9.43;;
20320;SDS011;10318;47.674;9.052;2022-11-27T12:04:49;14.45;;;9.93;;
20320;SDS011;10318;47.674;9.052;2022-11-27T12:07:23;13.20;;;10.15;;
20320;SDS011;10318;47.674;9.052;2022-11-27T12:10:03;12.20;;;9.43;;
20320;SDS011;10318;47.674;9.052;2022-11-27T12:15:29;11.75;;;9.20;;
20320;SDS011;10318;47.674;9.052;2022-11-27T12:18:01;12.52;;;9.55;;
20320;SDS011;10318;47.674;9.052;2022-11-27T12:36:03;12.05;;;10.15;;
20320;SDS011;10318;47.674;9.052;2022-11-27T12:42:06;12.05;;;9.10;;
20320;SDS011;10318;47.674;9.052;2022-11-27T12:44:17;11.50;;;8.65;;
20320;SDS011;10318;47.674;9.052;2022-11-27T12:47:48;11.88;;;9.35;;
20320;SDS011;10318;47.674;9.052;2022-11-27T12:49:44;13.35;;;9.95;;
20320;SDS011;10318;47.674;9.052;2022-11-27T12:57:10;11.93;;;9.25;;
20320;SDS011;10318;47.674;9.052;2022-11-27T12:59:42;10.23;;;8.70;;
20320;SDS011;10318;47.674;9.052;2022-11-27T13:02:17;9.63;;;8.45;;
20320;SDS011;10318;47.674;9.052;2022-11-27T13:04:56;11.20;;;8.80;;
20320;SDS011;10318;47.674;9.052;2022-11-27T13:07:26;12.38;;;8.75;;
20320;SDS011;10318;47.674;9.052;2022-11-27T13:18:13;14.68;;;9.23;;
20320;SDS011;10318;47.674;9.052;2022-11-27T13:20:44;11.07;;;8.90;;
20320;SDS011;10318;47.674;9.052;2022-11-27T13:23:19;10.20;;;7.97;;
20320;SDS011;10318;47.674;9.052;2022-11-27T13:25:48;11.07;;;7.93;;
20320;SDS011;10318;47.674;9.052;2022-11-27T13:28:24;8.80;;;7.53;;
20320;SDS011;10318;47.674;9.052;2022-11-27T13:30:52;11.18;;;7.90;;
20320;SDS011;10318;47.674;9.052;2022-11-27T13:33:41;10.70;;;8.45;;
20320;SDS011;10318;47.674;9.052;2022-11-27T13:36:06;10.00;;;8.15;;
20320;SDS011;10318;47.674;9.052;2022-11-27T13:38:43;10.73;;;7.97;;
20320;SDS011;10318;47.674;9.052;2022-11-27T13:41:18;9.73;;;7.68;;
20320;SDS011;10318;47.674;9.052;2022-11-27T13:43:45;9.48;;;7.88;;
20320;SDS011;10318;47.674;9.052;2022-11-27T13:46:22;12.25;;;8.38;;
20320;SDS011;10318;47.674;9.052;2022-11-27T13:48:51;12.40;;;8.45;;
20320;SDS011;10318;47.674;9.052;2022-11-27T13:51:24;10.00;;;8.20;;
20320;SDS011;10318;47.674;9.052;2022-11-27T13:53:51;8.73;;;7.50;;
20320;SDS011;10318;47.674;9.052;2022-11-27T13:56:27;9.52;;;7.93;;
20320;SDS011;10318;47.674;9.052;2022-11-27T13:58:54;13.05;;;7.78;;
20320;SDS011;10318;47.674;9.052;2022-11-27T14:01:21;8.68;;;7.20;;
20320;SDS011;10318;47.674;9.052;2022-11-27T14:03:49;9.27;;;7.63;;
20320;SDS011;10318;47.674;9.052;2022-11-27T14:06:17;9.13;;;7.40;;
20320;SDS011;10318;47.674;9.052;2022-11-27T14:08:51;9.30;;;7.40;;
20320;SDS011;10318;47.674;9.052;2022-11-27T14:11:27;9.82;;;7.22;;
20320;SDS011;10318;47.674;9.052;2022-11-27T14:13:54;9.35;;;7.80;;
20320;SDS011;10318;47.674;9.052;2022-11-27T14:16:27;10.35;;;7.47;;
20320;SDS011;10318;47.674;9.052;2022-11-27T14:18:58;11.02;;;8.05;;
20320;SDS011;10318;47.674;9.052;2022-11-27T14:26:50;10.80;;;8.05;;
20320;SDS011;10318;47.674;9.052;2022-11-27T14:29:21;12.48;;;8.23;;
20320;SDS011;10318;47.674;9.052;2022-11-27T14:31:55;8.50;;;7.10;;
20320;SDS011;10318;47.674;9.052;2022-11-27T14:34:29;10.18;;;7.45;;
20320;SDS011;10318;47.674;9.052;2022-11-27T14:36:56;9.90;;;8.07;;
20320;SDS011;10318;47.674;9.052;2022-11-27T14:41:59;8.55;;;7.45;;
20320;SDS011;10318;47.674;9.052;2022-11-27T14:44:26;37.78;;;8.82;;
20320;SDS011;10318;47.674;9.052;2022-11-27T14:46:53;11.40;;;7.47;;
20320;SDS011;10318;47.674;9.052;2022-11-27T14:49:23;9.90;;;7.55;;
20320;SDS011;10318;47.674;9.052;2022-11-27T14:51:50;10.27;;;7.93;;
20320;SDS011;10318;47.674;9.052;2022-11-27T14:54:24;11.18;;;8.13;;
20320;SDS011;10318;47.674;9.052;2022-11-27T14:56:51;9.02;;;7.82;;
20320;SDS011;10318;47.674;9.052;2022-11-27T14:59:19;10.85;;;7.90;;
20320;SDS011;10318;47.674;9.052;2022-11-27T15:02:00;11.15;;;7.57;;
20320;SDS011;10318;47.674;9.052;2022-11-27T15:04:28;9.05;;;7.88;;
20320;SDS011;10318;47.674;9.052;2022-11-27T15:06:58;11.02;;;7.75;;
20320;SDS011;10318;47.674;9.052;2022-11-27T15:09:26;11.38;;;8.57;;
20320;SDS011;10318;47.674;9.052;2022-11-27T15:12:19;9.95;;;7.90;;
20320;SDS011;10318;47.674;9.052;2022-11-27T15:14:50;11.20;;;7.97;;
20320;SDS011;10318;47.674;9.052;2022-11-27T15:17:23;10.20;;;8.27;;
20320;SDS011;10318;47.674;9.052;2022-11-27T15:19:50;9.73;;;8.05;;
20320;SDS011;10318;47.674;9.052;2022-11-27T15:22:17;10.77;;;7.38;;
20320;SDS011;10318;47.674;9.052;2022-11-27T15:24:44;9.23;;;8.05;;
20320;SDS011;10318;47.674;9.052;2022-11-27T15:29:58;11.90;;;8.95;;
20320;SDS011;10318;47.674;9.052;2022-11-27T15:32:26;10.43;;;8.43;;
20320;SDS011;10318;47.674;9.052;2022-11-27T15:34:53;11.00;;;8.27;;
20320;SDS011;10318;47.674;9.052;2022-11-27T15:37:23;11.68;;;9.32;;
20320;SDS011;10318;47.674;9.052;2022-11-27T15:39:53;10.88;;;8.93;;
20320;SDS011;10318;47.674;9.052;2022-11-27T15:42:20;13.20;;;8.88;;
20320;SDS011;10318;47.674;9.052;2022-11-27T15:44:48;11.57;;;9.75;;
20320;SDS011;10318;47.674;9.052;2022-11-27T15:49:54;12.65;;;9.07;;
20320;SDS011;10318;47.674;9.052;2022-11-27T15:52:21;12.85;;;9.70;;
20320;SDS011;10318;47.674;9.052;2022-11-27T15:54:48;10.45;;;8.25;;
20320;SDS011;10318;47.674;9.052;2022-11-27T15:57:15;13.35;;;9.52;;
20320;SDS011;10318;47.674;9.052;2022-11-27T15:59:41;12.80;;;9.30;;
20320;SDS011;10318;47.674;9.052;2022-11-27T16:02:11;12.40;;;9.98;;
20320;SDS011;10318;47.674;9.052;2022-11-27T16:04:43;13.25;;;9.48;;
20320;SDS011;10318;47.674;9.052;2022-11-27T16:07:10;12.10;;;9.23;;
20320;SDS011;10318;47.674;9.052;2022-11-27T16:09:37;11.00;;;9.27;;
20320;SDS011;10318;47.674;9.052;2022-11-27T16:12:05;12.85;;;10.40;;
20320;SDS011;10318;47.674;9.052;2022-11-27T16:14:32;13.43;;;10.23;;
20320;SDS011;10318;47.674;9.052;2022-11-27T16:16:58;11.82;;;9.95;;
20320;SDS011;10318;47.674;9.052;2022-11-27T16:19:26;11.55;;;9.27;;
20320;SDS011;10318;47.674;9.052;2022-11-27T16:21:53;14.43;;;9.98;;
20320;SDS011;10318;47.674;9.052;2022-11-27T16:24:20;15.75;;;10.90;;
20320;SDS011;10318;47.674;9.052;2022-11-27T16:26:47;15.05;;;9.95;;
20320;SDS011;10318;47.674;9.052;2022-11-27T16:29:13;11.95;;;8.63;;
20320;SDS011;10318;47.674;9.052;2022-11-27T16:31:40;13.85;;;9.95;;